Wing, Alabama
Current Conditions -  °F | °C
As of 12:58 AM on Thursday 23 Oct 2014 (Local Time) from K0J4 Reporting Station
Clear Clear  
Wind Chill: 51°   Ceiling: Unl
Heat Index: 51°   Visibility: 10mi
Dew Point: 44°   Wind: 6mph
Humidity: 77%   Direction: 20°NNE
Pressure: 30.09"   Gusts: NA
Location:  31.03°N, 86.61°W
Report Text: K0J4 230558Z AUTO 02005KT 10SM CLR 11/07 A3009 RMK AO2 SLP186 T01060067 10150 20094 56011 $
Loading
Personal Weather Stations






























Interactive Weather Map New forecast layout! Learn more

10-Day Weather Forecast

Advertisements
Track Severe Weather on mobile